sensor_id;sensor_type;location;lat;lon;timestamp;temperature;humidity
5792;DHT22;2922;53.482;10.006;2023-07-13T00:01:47;17.60;99.90
5792;DHT22;2922;53.482;10.006;2023-07-13T00:04:18;17.60;99.90
5792;DHT22;2922;53.482;10.006;2023-07-13T00:06:44;17.60;99.90
5792;DHT22;2922;53.482;10.006;2023-07-13T00:09:20;17.50;99.90
5792;DHT22;2922;53.482;10.006;2023-07-13T00:11:49;17.50;99.90
5792;DHT22;2922;53.482;10.006;2023-07-13T00:14:15;17.50;99.90
5792;DHT22;2922;53.482;10.006;2023-07-13T00:16:41;17.40;99.90
5792;DHT22;2922;53.482;10.006;2023-07-13T00:19:09;17.40;99.90
5792;DHT22;2922;53.482;10.006;2023-07-13T00:21:35;17.30;99.90
5792;DHT22;2922;53.482;10.006;2023-07-13T00:24:01;17.30;99.90
5792;DHT22;2922;53.482;10.006;2023-07-13T00:26:27;17.20;99.90
5792;DHT22;2922;53.482;10.006;2023-07-13T00:28:52;17.20;99.90
5792;DHT22;2922;53.482;10.006;2023-07-13T00:31:18;17.20;99.90
5792;DHT22;2922;53.482;10.006;2023-07-13T00:33:44;17.10;99.90
5792;DHT22;2922;53.482;10.006;2023-07-13T00:36:10;17.10;99.90
5792;DHT22;2922;53.482;10.006;2023-07-13T00:38:36;17.10;99.90
5792;DHT22;2922;53.482;10.006;2023-07-13T00:41:02;17.00;99.90
5792;DHT22;2922;53.482;10.006;2023-07-13T00:43:29;17.00;99.90
5792;DHT22;2922;53.482;10.006;2023-07-13T00:46:15;16.90;99.90
5792;DHT22;2922;53.482;10.006;2023-07-13T00:48:41;16.90;99.90
5792;DHT22;2922;53.482;10.006;2023-07-13T00:51:08;16.80;99.90
5792;DHT22;2922;53.482;10.006;2023-07-13T00:53:35;16.80;99.90
5792;DHT22;2922;53.482;10.006;2023-07-13T00:56:01;16.70;99.90
5792;DHT22;2922;53.482;10.006;2023-07-13T00:58:28;16.70;99.90
5792;DHT22;2922;53.482;10.006;2023-07-13T01:00:54;16.70;99.90
5792;DHT22;2922;53.482;10.006;2023-07-13T01:03:20;16.60;99.90
5792;DHT22;2922;53.482;10.006;2023-07-13T01:05:48;16.60;99.90
5792;DHT22;2922;53.482;10.006;2023-07-13T01:08:15;16.60;99.90
5792;DHT22;2922;53.482;10.006;2023-07-13T01:10:50;16.60;99.90
5792;DHT22;2922;53.482;10.006;2023-07-13T01:13:16;16.60;99.90
5792;DHT22;2922;53.482;10.006;2023-07-13T01:15:44;16.50;99.90
5792;DHT22;2922;53.482;10.006;2023-07-13T01:18:14;16.50;99.90
5792;DHT22;2922;53.482;10.006;2023-07-13T01:20:41;16.50;99.90
5792;DHT22;2922;53.482;10.006;2023-07-13T01:23:09;16.50;99.90
5792;DHT22;2922;53.482;10.006;2023-07-13T01:25:37;16.40;99.90
5792;DHT22;2922;53.482;10.006;2023-07-13T01:28:04;16.40;99.90
5792;DHT22;2922;53.482;10.006;2023-07-13T01:30:30;16.40;99.90
5792;DHT22;2922;53.482;10.006;2023-07-13T01:32:56;16.30;99.90
5792;DHT22;2922;53.482;10.006;2023-07-13T01:35:21;16.30;99.90
5792;DHT22;2922;53.482;10.006;2023-07-13T01:37:47;16.30;99.90
5792;DHT22;2922;53.482;10.006;2023-07-13T01:40:13;16.30;99.90
5792;DHT22;2922;53.482;10.006;2023-07-13T01:42:38;16.30;99.90
5792;DHT22;2922;53.482;10.006;2023-07-13T01:45:04;16.30;99.90
5792;DHT22;2922;53.482;10.006;2023-07-13T01:47:30;16.20;99.90
5792;DHT22;2922;53.482;10.006;2023-07-13T01:49:57;16.20;99.90
5792;DHT22;2922;53.482;10.006;2023-07-13T01:52:23;16.20;99.90
5792;DHT22;2922;53.482;10.006;2023-07-13T01:54:49;16.20;99.90
5792;DHT22;2922;53.482;10.006;2023-07-13T01:57:14;16.10;99.90
5792;DHT22;2922;53.482;10.006;2023-07-13T01:59:40;16.10;99.90
5792;DHT22;2922;53.482;10.006;2023-07-13T02:02:05;16.10;99.90
5792;DHT22;2922;53.482;10.006;2023-07-13T02:04:31;16.10;99.90
5792;DHT22;2922;53.482;10.006;2023-07-13T02:06:57;16.10;99.90
5792;DHT22;2922;53.482;10.006;2023-07-13T02:09:22;16.10;99.90
5792;DHT22;2922;53.482;10.006;2023-07-13T02:11:48;16.00;99.90
5792;DHT22;2922;53.482;10.006;2023-07-13T02:14:14;16.00;99.90
5792;DHT22;2922;53.482;10.006;2023-07-13T02:16:41;16.00;99.90
5792;DHT22;2922;53.482;10.006;2023-07-13T02:19:07;16.00;99.90
5792;DHT22;2922;53.482;10.006;2023-07-13T02:21:33;16.00;99.90
5792;DHT22;2922;53.482;10.006;2023-07-13T02:23:58;16.00;99.90
5792;DHT22;2922;53.482;10.006;2023-07-13T02:26:25;15.90;99.90
5792;DHT22;2922;53.482;10.006;2023-07-13T02:28:51;15.90;99.90
5792;DHT22;2922;53.482;10.006;2023-07-13T02:31:17;15.90;99.90
5792;DHT22;2922;53.482;10.006;2023-07-13T02:33:42;15.90;99.90
5792;DHT22;2922;53.482;10.006;2023-07-13T02:36:08;15.90;99.90
5792;DHT22;2922;53.482;10.006;2023-07-13T02:38:35;15.90;99.90
5792;DHT22;2922;53.482;10.006;2023-07-13T02:41:05;15.80;99.90
5792;DHT22;2922;53.482;10.006;2023-07-13T02:43:31;15.80;99.90
5792;DHT22;2922;53.482;10.006;2023-07-13T02:45:56;15.80;99.90
5792;DHT22;2922;53.482;10.006;2023-07-13T02:48:25;15.80;99.90
5792;DHT22;2922;53.482;10.006;2023-07-13T02:50:51;15.70;99.90
5792;DHT22;2922;53.482;10.006;2023-07-13T02:53:16;15.80;99.90
5792;DHT22;2922;53.482;10.006;2023-07-13T02:55:42;15.70;99.90
5792;DHT22;2922;53.482;10.006;2023-07-13T02:58:12;15.70;99.90
5792;DHT22;2922;53.482;10.006;2023-07-13T03:00:42;15.70;99.90
5792;DHT22;2922;53.482;10.006;2023-07-13T03:03:08;15.70;99.90
5792;DHT22;2922;53.482;10.006;2023-07-13T03:05:33;15.70;99.90
5792;DHT22;2922;53.482;10.006;2023-07-13T03:07:59;15.70;99.90
5792;DHT22;2922;53.482;10.006;2023-07-13T03:10:24;15.70;99.90
5792;DHT22;2922;53.482;10.006;2023-07-13T03:12:51;15.70;99.90
5792;DHT22;2922;53.482;10.006;2023-07-13T03:15:16;15.70;99.90
5792;DHT22;2922;53.482;10.006;2023-07-13T03:17:42;15.70;99.90
5792;DHT22;2922;53.482;10.006;2023-07-13T03:20:08;15.70;99.90
5792;DHT22;2922;53.482;10.006;2023-07-13T03:22:33;15.60;99.90
5792;DHT22;2922;53.482;10.006;2023-07-13T03:24:59;15.60;99.90
5792;DHT22;2922;53.482;10.006;2023-07-13T03:27:24;15.60;99.90
5792;DHT22;2922;53.482;10.006;2023-07-13T03:29:50;15.60;99.90
5792;DHT22;2922;53.482;10.006;2023-07-13T03:32:15;15.60;99.90
5792;DHT22;2922;53.482;10.006;2023-07-13T03:34:41;15.60;99.90
5792;DHT22;2922;53.482;10.006;2023-07-13T03:37:07;15.60;99.90
5792;DHT22;2922;53.482;10.006;2023-07-13T03:39:32;15.60;99.90
5792;DHT22;2922;53.482;10.006;2023-07-13T03:41:58;15.60;99.90
5792;DHT22;2922;53.482;10.006;2023-07-13T03:44:23;15.50;99.90
5792;DHT22;2922;53.482;10.006;2023-07-13T03:46:49;15.50;99.90
5792;DHT22;2922;53.482;10.006;2023-07-13T03:49:14;15.50;99.90
5792;DHT22;2922;53.482;10.006;2023-07-13T03:51:40;15.50;99.90
5792;DHT22;2922;53.482;10.006;2023-07-13T03:54:05;15.60;99.90
5792;DHT22;2922;53.482;10.006;2023-07-13T03:56:33;15.50;99.90
5792;DHT22;2922;53.482;10.006;2023-07-13T03:58:59;15.50;99.90
5792;DHT22;2922;53.482;10.006;2023-07-13T04:01:25;15.50;99.90
5792;DHT22;2922;53.482;10.006;2023-07-13T04:03:51;15.50;99.90
5792;DHT22;2922;53.482;10.006;2023-07-13T04:06:20;15.50;99.90
5792;DHT22;2922;53.482;10.006;2023-07-13T04:08:55;15.50;99.90
5792;DHT22;2922;53.482;10.006;2023-07-13T04:11:23;15.50;99.90
5792;DHT22;2922;53.482;10.006;2023-07-13T04:13:49;15.50;99.90
5792;DHT22;2922;53.482;10.006;2023-07-13T04:16:16;15.50;99.90
5792;DHT22;2922;53.482;10.006;2023-07-13T04:18:42;15.50;99.90
5792;DHT22;2922;53.482;10.006;2023-07-13T04:21:07;15.50;99.90
5792;DHT22;2922;53.482;10.006;2023-07-13T04:23:35;15.50;99.90
5792;DHT22;2922;53.482;10.006;2023-07-13T04:26:00;15.50;99.90
5792;DHT22;2922;53.482;10.006;2023-07-13T04:28:26;15.50;99.90
5792;DHT22;2922;53.482;10.006;2023-07-13T04:30:52;15.50;99.90
5792;DHT22;2922;53.482;10.006;2023-07-13T04:33:18;15.50;99.90
5792;DHT22;2922;53.482;10.006;2023-07-13T04:35:48;15.60;99.90
5792;DHT22;2922;53.482;10.006;2023-07-13T04:38:14;15.60;99.90
5792;DHT22;2922;53.482;10.006;2023-07-13T04:40:44;15.60;99.90
5792;DHT22;2922;53.482;10.006;2023-07-13T04:43:09;15.60;99.90
5792;DHT22;2922;53.482;10.006;2023-07-13T04:45:35;15.70;99.90
5792;DHT22;2922;53.482;10.006;2023-07-13T04:48:01;15.70;99.90
5792;DHT22;2922;53.482;10.006;2023-07-13T04:50:26;15.70;99.90
5792;DHT22;2922;53.482;10.006;2023-07-13T04:52:52;15.80;99.90
5792;DHT22;2922;53.482;10.006;2023-07-13T04:55:18;15.80;99.90
5792;DHT22;2922;53.482;10.006;2023-07-13T04:57:45;15.90;99.90
5792;DHT22;2922;53.482;10.006;2023-07-13T05:00:11;15.90;99.90
5792;DHT22;2922;53.482;10.006;2023-07-13T05:02:38;15.90;99.90
5792;DHT22;2922;53.482;10.006;2023-07-13T05:05:04;16.00;99.90
5792;DHT22;2922;53.482;10.006;2023-07-13T05:07:29;16.10;99.90
5792;DHT22;2922;53.482;10.006;2023-07-13T05:09:55;16.10;99.90
5792;DHT22;2922;53.482;10.006;2023-07-13T05:12:21;16.20;99.90
5792;DHT22;2922;53.482;10.006;2023-07-13T05:14:47;16.30;99.90
5792;DHT22;2922;53.482;10.006;2023-07-13T05:17:14;16.50;99.90
5792;DHT22;2922;53.482;10.006;2023-07-13T05:19:39;16.50;99.90
5792;DHT22;2922;53.482;10.006;2023-07-13T05:22:05;16.60;99.90
5792;DHT22;2922;53.482;10.006;2023-07-13T05:24:31;16.80;99.90
5792;DHT22;2922;53.482;10.006;2023-07-13T05:26:57;16.90;99.90
5792;DHT22;2922;53.482;10.006;2023-07-13T05:29:22;17.10;99.90
5792;DHT22;2922;53.482;10.006;2023-07-13T05:31:48;17.20;99.90
5792;DHT22;2922;53.482;10.006;2023-07-13T05:34:14;17.30;99.90
5792;DHT22;2922;53.482;10.006;2023-07-13T05:36:40;17.40;99.90
5792;DHT22;2922;53.482;10.006;2023-07-13T05:39:06;17.40;99.90
5792;DHT22;2922;53.482;10.006;2023-07-13T05:41:31;17.40;99.90
5792;DHT22;2922;53.482;10.006;2023-07-13T05:43:57;17.40;99.90
5792;DHT22;2922;53.482;10.006;2023-07-13T05:46:23;17.50;99.90
5792;DHT22;2922;53.482;10.006;2023-07-13T05:48:48;17.40;99.90
5792;DHT22;2922;53.482;10.006;2023-07-13T05:51:14;17.40;99.90
5792;DHT22;2922;53.482;10.006;2023-07-13T05:53:40;17.40;99.90
5792;DHT22;2922;53.482;10.006;2023-07-13T05:56:05;17.40;99.90
5792;DHT22;2922;53.482;10.006;2023-07-13T05:58:31;17.40;99.90
5792;DHT22;2922;53.482;10.006;2023-07-13T06:01:06;17.50;99.90
5792;DHT22;2922;53.482;10.006;2023-07-13T06:03:32;17.50;99.90
5792;DHT22;2922;53.482;10.006;2023-07-13T06:05:58;17.60;99.90
5792;DHT22;2922;53.482;10.006;2023-07-13T06:08:26;17.60;99.90
5792;DHT22;2922;53.482;10.006;2023-07-13T06:10:52;17.70;99.90
5792;DHT22;2922;53.482;10.006;2023-07-13T06:13:17;17.80;99.90
5792;DHT22;2922;53.482;10.006;2023-07-13T06:15:48;17.80;99.90
5792;DHT22;2922;53.482;10.006;2023-07-13T06:18:14;17.80;99.90
5792;DHT22;2922;53.482;10.006;2023-07-13T06:20:40;17.70;99.90
5792;DHT22;2922;53.482;10.006;2023-07-13T06:23:05;17.70;99.90
5792;DHT22;2922;53.482;10.006;2023-07-13T06:25:31;17.70;99.90
5792;DHT22;2922;53.482;10.006;2023-07-13T06:27:56;17.80;99.90
5792;DHT22;2922;53.482;10.006;2023-07-13T06:30:22;17.80;99.90
5792;DHT22;2922;53.482;10.006;2023-07-13T06:32:48;17.80;99.90
5792;DHT22;2922;53.482;10.006;2023-07-13T06:35:13;17.90;99.90
5792;DHT22;2922;53.482;10.006;2023-07-13T06:37:39;17.80;99.90
5792;DHT22;2922;53.482;10.006;2023-07-13T06:40:05;17.90;99.90
5792;DHT22;2922;53.482;10.006;2023-07-13T06:42:31;17.90;99.90
5792;DHT22;2922;53.482;10.006;2023-07-13T06:44:57;17.90;99.90
5792;DHT22;2922;53.482;10.006;2023-07-13T06:47:22;18.00;99.90
5792;DHT22;2922;53.482;10.006;2023-07-13T06:49:48;18.00;99.90
5792;DHT22;2922;53.482;10.006;2023-07-13T06:52:13;18.10;99.90
5792;DHT22;2922;53.482;10.006;2023-07-13T06:54:39;18.10;99.90
5792;DHT22;2922;53.482;10.006;2023-07-13T06:57:05;18.20;99.90
5792;DHT22;2922;53.482;10.006;2023-07-13T06:59:30;18.20;99.90
5792;DHT22;2922;53.482;10.006;2023-07-13T07:01:56;18.30;99.90
5792;DHT22;2922;53.482;10.006;2023-07-13T07:04:21;18.40;99.90
5792;DHT22;2922;53.482;10.006;2023-07-13T07:06:47;18.40;99.90
5792;DHT22;2922;53.482;10.006;2023-07-13T07:09:13;18.40;99.90
5792;DHT22;2922;53.482;10.006;2023-07-13T07:11:39;18.40;99.90
5792;DHT22;2922;53.482;10.006;2023-07-13T07:14:04;18.40;99.90
5792;DHT22;2922;53.482;10.006;2023-07-13T07:16:30;18.50;99.90
5792;DHT22;2922;53.482;10.006;2023-07-13T07:18:55;18.60;99.90
5792;DHT22;2922;53.482;10.006;2023-07-13T07:21:21;18.90;99.90
5792;DHT22;2922;53.482;10.006;2023-07-13T07:23:48;19.00;99.90
5792;DHT22;2922;53.482;10.006;2023-07-13T07:26:14;19.10;99.90
5792;DHT22;2922;53.482;10.006;2023-07-13T07:28:40;19.10;99.90
5792;DHT22;2922;53.482;10.006;2023-07-13T07:31:05;19.40;99.90
5792;DHT22;2922;53.482;10.006;2023-07-13T07:33:32;19.50;99.90
5792;DHT22;2922;53.482;10.006;2023-07-13T07:35:58;19.60;99.90
5792;DHT22;2922;53.482;10.006;2023-07-13T07:38:23;19.70;99.90
5792;DHT22;2922;53.482;10.006;2023-07-13T07:40:49;19.90;99.90
5792;DHT22;2922;53.482;10.006;2023-07-13T07:43:14;20.00;99.90
5792;DHT22;2922;53.482;10.006;2023-07-13T07:45:40;20.00;99.90
5792;DHT22;2922;53.482;10.006;2023-07-13T07:48:06;20.10;99.90
5792;DHT22;2922;53.482;10.006;2023-07-13T07:50:32;20.20;99.90
5792;DHT22;2922;53.482;10.006;2023-07-13T07:52:58;20.20;99.90
5792;DHT22;2922;53.482;10.006;2023-07-13T07:55:25;20.30;99.90
5792;DHT22;2922;53.482;10.006;2023-07-13T07:57:55;20.40;99.90
5792;DHT22;2922;53.482;10.006;2023-07-13T08:00:21;20.60;99.90
5792;DHT22;2922;53.482;10.006;2023-07-13T08:02:46;20.50;99.90
5792;DHT22;2922;53.482;10.006;2023-07-13T08:05:13;20.50;99.90
5792;DHT22;2922;53.482;10.006;2023-07-13T08:07:39;20.80;99.90
5792;DHT22;2922;53.482;10.006;2023-07-13T08:10:08;20.90;99.90
5792;DHT22;2922;53.482;10.006;2023-07-13T08:12:35;21.10;99.90
5792;DHT22;2922;53.482;10.006;2023-07-13T08:15:01;21.00;99.90
5792;DHT22;2922;53.482;10.006;2023-07-13T08:17:27;20.80;99.90
5792;DHT22;2922;53.482;10.006;2023-07-13T08:19:52;21.00;99.90
5792;DHT22;2922;53.482;10.006;2023-07-13T08:22:18;21.10;99.90
5792;DHT22;2922;53.482;10.006;2023-07-13T08:24:44;21.40;99.90
5792;DHT22;2922;53.482;10.006;2023-07-13T08:27:13;21.50;99.90
5792;DHT22;2922;53.482;10.006;2023-07-13T08:29:39;21.60;99.90
5792;DHT22;2922;53.482;10.006;2023-07-13T08:32:06;21.80;99.90
5792;DHT22;2922;53.482;10.006;2023-07-13T08:34:34;21.50;99.90
5792;DHT22;2922;53.482;10.006;2023-07-13T08:37:01;21.30;99.90
5792;DHT22;2922;53.482;10.006;2023-07-13T08:39:26;21.30;99.90
5792;DHT22;2922;53.482;10.006;2023-07-13T08:41:58;21.60;99.90
5792;DHT22;2922;53.482;10.006;2023-07-13T08:45:12;21.90;99.90
5792;DHT22;2922;53.482;10.006;2023-07-13T08:47:35;22.30;99.90
5792;DHT22;2922;53.482;10.006;2023-07-13T08:50:03;22.40;99.90
5792;DHT22;2922;53.482;10.006;2023-07-13T08:52:38;22.60;99.90
5792;DHT22;2922;53.482;10.006;2023-07-13T08:55:26;22.40;99.90
5792;DHT22;2922;53.482;10.006;2023-07-13T08:58:05;22.50;99.90
5792;DHT22;2922;53.482;10.006;2023-07-13T09:03:46;22.50;99.90
5792;DHT22;2922;53.482;10.006;2023-07-13T09:06:15;22.80;99.90
5792;DHT22;2922;53.482;10.006;2023-07-13T09:08:55;22.70;99.90
5792;DHT22;2922;53.482;10.006;2023-07-13T09:16:55;22.10;99.90
5792;DHT22;2922;53.482;10.006;2023-07-13T09:19:27;21.80;99.90
5792;DHT22;2922;53.482;10.006;2023-07-13T09:21:54;21.70;99.90
5792;DHT22;2922;53.482;10.006;2023-07-13T09:24:38;21.70;99.90
5792;DHT22;2922;53.482;10.006;2023-07-13T09:27:23;21.80;99.90
5792;DHT22;2922;53.482;10.006;2023-07-13T09:29:57;21.70;99.90
5792;DHT22;2922;53.482;10.006;2023-07-13T09:32:25;21.60;99.90
5792;DHT22;2922;53.482;10.006;2023-07-13T09:34:53;21.80;99.90
5792;DHT22;2922;53.482;10.006;2023-07-13T09:37:31;22.00;99.90
5792;DHT22;2922;53.482;10.006;2023-07-13T09:39:59;21.90;99.90
5792;DHT22;2922;53.482;10.006;2023-07-13T09:42:26;22.10;99.90
5792;DHT22;2922;53.482;10.006;2023-07-13T09:44:56;22.40;99.90
5792;DHT22;2922;53.482;10.006;2023-07-13T09:47:33;22.30;99.90
5792;DHT22;2922;53.482;10.006;2023-07-13T09:50:09;22.40;99.90
5792;DHT22;2922;53.482;10.006;2023-07-13T09:52:43;22.40;99.90
5792;DHT22;2922;53.482;10.006;2023-07-13T09:55:32;22.70;99.90
5792;DHT22;2922;53.482;10.006;2023-07-13T10:00:37;22.80;99.90
5792;DHT22;2922;53.482;10.006;2023-07-13T10:03:06;22.60;99.90
5792;DHT22;2922;53.482;10.006;2023-07-13T10:05:41;22.50;99.90
5792;DHT22;2922;53.482;10.006;2023-07-13T10:08:28;22.70;99.90
5792;DHT22;2922;53.482;10.006;2023-07-13T10:11:19;22.90;99.90
5792;DHT22;2922;53.482;10.006;2023-07-13T10:14:03;23.00;99.90
5792;DHT22;2922;53.482;10.006;2023-07-13T10:16:35;23.00;99.90
5792;DHT22;2922;53.482;10.006;2023-07-13T10:19:11;22.70;99.90
5792;DHT22;2922;53.482;10.006;2023-07-13T10:21:59;22.50;99.90
5792;DHT22;2922;53.482;10.006;2023-07-13T10:24:29;22.30;99.90
5792;DHT22;2922;53.482;10.006;2023-07-13T10:27:19;22.20;99.90
5792;DHT22;2922;53.482;10.006;2023-07-13T10:29:55;22.40;99.90
5792;DHT22;2922;53.482;10.006;2023-07-13T10:32:25;23.10;99.90
5792;DHT22;2922;53.482;10.006;2023-07-13T10:34:51;23.10;99.90
5792;DHT22;2922;53.482;10.006;2023-07-13T10:40:53;23.40;99.90
5792;DHT22;2922;53.482;10.006;2023-07-13T10:43:27;23.70;99.90
5792;DHT22;2922;53.482;10.006;2023-07-13T10:45:54;24.20;99.90
5792;DHT22;2922;53.482;10.006;2023-07-13T10:48:21;24.30;99.90
5792;DHT22;2922;53.482;10.006;2023-07-13T10:50:50;24.10;99.90
5792;DHT22;2922;53.482;10.006;2023-07-13T10:53:28;23.70;99.90
5792;DHT22;2922;53.482;10.006;2023-07-13T10:55:58;23.40;99.90
5792;DHT22;2922;53.482;10.006;2023-07-13T11:03:30;22.80;99.90
5792;DHT22;2922;53.482;10.006;2023-07-13T11:18:48;24.30;99.90
5792;DHT22;2922;53.482;10.006;2023-07-13T11:21:17;24.30;99.90
5792;DHT22;2922;53.482;10.006;2023-07-13T11:23:44;24.30;96.80
5792;DHT22;2922;53.482;10.006;2023-07-13T11:26:42;24.70;99.90
5792;DHT22;2922;53.482;10.006;2023-07-13T11:29:54;24.90;96.40
5792;DHT22;2922;53.482;10.006;2023-07-13T11:31:57;25.10;98.70
5792;DHT22;2922;53.482;10.006;2023-07-13T11:34:30;24.40;85.70
5792;DHT22;2922;53.482;10.006;2023-07-13T11:36:58;24.40;97.30
5792;DHT22;2922;53.482;10.006;2023-07-13T11:39:35;24.20;98.10
5792;DHT22;2922;53.482;10.006;2023-07-13T11:42:07;24.10;95.10
5792;DHT22;2922;53.482;10.006;2023-07-13T11:44:34;24.50;99.40
5792;DHT22;2922;53.482;10.006;2023-07-13T11:47:11;24.90;97.60
5792;DHT22;2922;53.482;10.006;2023-07-13T11:49:49;25.30;93.20
5792;DHT22;2922;53.482;10.006;2023-07-13T11:52:17;25.50;93.40
5792;DHT22;2922;53.482;10.006;2023-07-13T11:54:49;25.70;91.40
5792;DHT22;2922;53.482;10.006;2023-07-13T11:57:23;25.50;81.00
5792;DHT22;2922;53.482;10.006;2023-07-13T11:59:51;25.30;92.40
5792;DHT22;2922;53.482;10.006;2023-07-13T12:02:30;25.20;82.80
5792;DHT22;2922;53.482;10.006;2023-07-13T12:04:57;25.20;90.10
5792;DHT22;2922;53.482;10.006;2023-07-13T12:07:23;25.00;78.30
5792;DHT22;2922;53.482;10.006;2023-07-13T12:09:48;24.80;78.50
5792;DHT22;2922;53.482;10.006;2023-07-13T12:12:21;24.60;92.10
5792;DHT22;2922;53.482;10.006;2023-07-13T12:14:46;24.30;83.40
5792;DHT22;2922;53.482;10.006;2023-07-13T12:17:19;24.20;74.50
5792;DHT22;2922;53.482;10.006;2023-07-13T12:19:46;24.30;86.80
5792;DHT22;2922;53.482;10.006;2023-07-13T12:22:13;23.70;99.90
5792;DHT22;2922;53.482;10.006;2023-07-13T12:24:41;22.50;99.90
5792;DHT22;2922;53.482;10.006;2023-07-13T12:27:23;21.40;99.90
5792;DHT22;2922;53.482;10.006;2023-07-13T12:29:59;20.60;99.90
5792;DHT22;2922;53.482;10.006;2023-07-13T12:32:26;20.00;99.90
5792;DHT22;2922;53.482;10.006;2023-07-13T12:35:16;20.10;99.90
5792;DHT22;2922;53.482;10.006;2023-07-13T12:37:46;19.90;99.90
5792;DHT22;2922;53.482;10.006;2023-07-13T12:40:20;19.90;99.90
5792;DHT22;2922;53.482;10.006;2023-07-13T12:42:48;20.10;99.90
5792;DHT22;2922;53.482;10.006;2023-07-13T12:45:20;20.10;99.90
5792;DHT22;2922;53.482;10.006;2023-07-13T12:47:49;20.10;99.90
5792;DHT22;2922;53.482;10.006;2023-07-13T12:50:18;20.00;99.90
5792;DHT22;2922;53.482;10.006;2023-07-13T12:52:49;19.80;99.90
5792;DHT22;2922;53.482;10.006;2023-07-13T12:55:18;19.80;99.90
5792;DHT22;2922;53.482;10.006;2023-07-13T13:00:33;19.80;99.90
5792;DHT22;2922;53.482;10.006;2023-07-13T13:03:31;19.80;99.90
5792;DHT22;2922;53.482;10.006;2023-07-13T13:06:06;19.90;99.90
5792;DHT22;2922;53.482;10.006;2023-07-13T13:08:33;19.70;99.90
5792;DHT22;2922;53.482;10.006;2023-07-13T13:11:02;19.50;99.90
5792;DHT22;2922;53.482;10.006;2023-07-13T13:13:28;19.40;99.90
5792;DHT22;2922;53.482;10.006;2023-07-13T13:15:54;19.40;99.90
5792;DHT22;2922;53.482;10.006;2023-07-13T13:18:21;19.30;99.90
5792;DHT22;2922;53.482;10.006;2023-07-13T13:20:49;19.30;99.90
5792;DHT22;2922;53.482;10.006;2023-07-13T13:23:17;19.30;99.90
5792;DHT22;2922;53.482;10.006;2023-07-13T13:25:47;19.50;99.90
5792;DHT22;2922;53.482;10.006;2023-07-13T13:28:15;19.60;99.90
5792;DHT22;2922;53.482;10.006;2023-07-13T13:30:42;19.60;99.90
5792;DHT22;2922;53.482;10.006;2023-07-13T13:33:19;19.80;99.90
5792;DHT22;2922;53.482;10.006;2023-07-13T13:35:45;19.90;99.90
5792;DHT22;2922;53.482;10.006;2023-07-13T13:38:15;19.90;99.90
5792;DHT22;2922;53.482;10.006;2023-07-13T13:40:43;20.00;99.90
5792;DHT22;2922;53.482;10.006;2023-07-13T13:43:21;19.80;99.90
5792;DHT22;2922;53.482;10.006;2023-07-13T13:45:51;19.80;99.90
5792;DHT22;2922;53.482;10.006;2023-07-13T13:48:19;19.90;99.90
5792;DHT22;2922;53.482;10.006;2023-07-13T13:50:47;19.90;99.90
5792;DHT22;2922;53.482;10.006;2023-07-13T13:53:13;19.80;99.90
5792;DHT22;2922;53.482;10.006;2023-07-13T13:55:41;19.80;99.90
5792;DHT22;2922;53.482;10.006;2023-07-13T13:58:10;19.80;99.90
5792;DHT22;2922;53.482;10.006;2023-07-13T14:00:37;19.70;99.90
5792;DHT22;2922;53.482;10.006;2023-07-13T14:03:03;19.70;99.90
5792;DHT22;2922;53.482;10.006;2023-07-13T14:05:29;19.80;99.90
5792;DHT22;2922;53.482;10.006;2023-07-13T14:07:55;19.90;99.90
5792;DHT22;2922;53.482;10.006;2023-07-13T14:10:22;19.90;99.90
5792;DHT22;2922;53.482;10.006;2023-07-13T14:12:52;20.00;99.90
5792;DHT22;2922;53.482;10.006;2023-07-13T14:17:46;20.20;99.90
5792;DHT22;2922;53.482;10.006;2023-07-13T14:20:16;20.20;99.90
5792;DHT22;2922;53.482;10.006;2023-07-13T14:22:42;20.30;99.90
5792;DHT22;2922;53.482;10.006;2023-07-13T14:25:14;20.50;99.90
5792;DHT22;2922;53.482;10.006;2023-07-13T14:27:41;20.40;99.90
5792;DHT22;2922;53.482;10.006;2023-07-13T14:30:18;20.50;99.90
5792;DHT22;2922;53.482;10.006;2023-07-13T14:32:45;20.60;99.90
5792;DHT22;2922;53.482;10.006;2023-07-13T14:35:14;20.50;99.90
5792;DHT22;2922;53.482;10.006;2023-07-13T14:37:41;20.60;99.90
5792;DHT22;2922;53.482;10.006;2023-07-13T14:40:21;20.60;99.90
5792;DHT22;2922;53.482;10.006;2023-07-13T14:42:47;20.70;99.90
5792;DHT22;2922;53.482;10.006;2023-07-13T14:45:18;20.80;99.90
5792;DHT22;2922;53.482;10.006;2023-07-13T14:47:44;20.70;99.90
5792;DHT22;2922;53.482;10.006;2023-07-13T14:50:26;20.70;99.90
5792;DHT22;2922;53.482;10.006;2023-07-13T14:52:54;20.80;99.90
5792;DHT22;2922;53.482;10.006;2023-07-13T14:55:20;21.00;99.90
5792;DHT22;2922;53.482;10.006;2023-07-13T14:57:46;21.00;99.90
5792;DHT22;2922;53.482;10.006;2023-07-13T15:00:14;21.20;99.90
5792;DHT22;2922;53.482;10.006;2023-07-13T15:02:41;21.30;99.90
5792;DHT22;2922;53.482;10.006;2023-07-13T15:05:18;21.30;99.90
5792;DHT22;2922;53.482;10.006;2023-07-13T15:07:45;21.10;99.90
5792;DHT22;2922;53.482;10.006;2023-07-13T15:10:22;21.00;99.90
5792;DHT22;2922;53.482;10.006;2023-07-13T15:12:50;20.80;99.90
5792;DHT22;2922;53.482;10.006;2023-07-13T15:15:16;20.80;99.90
5792;DHT22;2922;53.482;10.006;2023-07-13T15:17:44;20.60;99.90
5792;DHT22;2922;53.482;10.006;2023-07-13T15:20:18;20.30;99.90
5792;DHT22;2922;53.482;10.006;2023-07-13T15:22:45;20.20;99.90
5792;DHT22;2922;53.482;10.006;2023-07-13T15:25:18;20.20;99.90
5792;DHT22;2922;53.482;10.006;2023-07-13T15:27:44;20.30;99.90
5792;DHT22;2922;53.482;10.006;2023-07-13T15:30:10;20.40;99.90
5792;DHT22;2922;53.482;10.006;2023-07-13T15:32:36;20.60;99.90
5792;DHT22;2922;53.482;10.006;2023-07-13T15:35:01;20.80;99.90
5792;DHT22;2922;53.482;10.006;2023-07-13T15:37:27;21.00;99.90
5792;DHT22;2922;53.482;10.006;2023-07-13T15:39:52;20.90;99.90
5792;DHT22;2922;53.482;10.006;2023-07-13T15:42:20;20.80;99.90
5792;DHT22;2922;53.482;10.006;2023-07-13T15:44:47;20.60;99.90
5792;DHT22;2922;53.482;10.006;2023-07-13T15:47:14;20.60;99.90
5792;DHT22;2922;53.482;10.006;2023-07-13T15:49:40;20.60;99.90
5792;DHT22;2922;53.482;10.006;2023-07-13T15:52:21;20.60;99.90
5792;DHT22;2922;53.482;10.006;2023-07-13T15:54:48;20.50;99.90
5792;DHT22;2922;53.482;10.006;2023-07-13T15:57:14;20.60;99.90
5792;DHT22;2922;53.482;10.006;2023-07-13T15:59:41;20.50;99.90
5792;DHT22;2922;53.482;10.006;2023-07-13T16:02:20;20.50;99.90
5792;DHT22;2922;53.482;10.006;2023-07-13T16:04:46;20.50;99.90
5792;DHT22;2922;53.482;10.006;2023-07-13T16:07:14;20.50;99.90
5792;DHT22;2922;53.482;10.006;2023-07-13T16:09:43;20.40;99.90
5792;DHT22;2922;53.482;10.006;2023-07-13T16:12:13;20.40;99.90
5792;DHT22;2922;53.482;10.006;2023-07-13T16:14:40;20.40;99.90
5792;DHT22;2922;53.482;10.006;2023-07-13T16:17:13;20.30;99.90
5792;DHT22;2922;53.482;10.006;2023-07-13T16:19:38;20.40;99.90
5792;DHT22;2922;53.482;10.006;2023-07-13T16:22:05;20.50;99.90
5792;DHT22;2922;53.482;10.006;2023-07-13T16:24:31;20.60;99.90
5792;DHT22;2922;53.482;10.006;2023-07-13T16:26:59;20.90;99.90
5792;DHT22;2922;53.482;10.006;2023-07-13T16:29:29;21.40;99.90
5792;DHT22;2922;53.482;10.006;2023-07-13T16:32:12;21.60;99.90